sensor_id;sensor_type;location;lat;lon;timestamp;P1;durP1;ratioP1;P2;durP2;ratioP2
44696;SDS011;57264;47.480;19.354;2023-05-10T00:01:46;4.37;;;3.20;;
44696;SDS011;57264;47.480;19.354;2023-05-10T00:04:11;4.53;;;3.23;;
44696;SDS011;57264;47.480;19.354;2023-05-10T00:06:37;4.27;;;3.03;;
44696;SDS011;57264;47.480;19.354;2023-05-10T00:09:02;5.63;;;3.33;;
44696;SDS011;57264;47.480;19.354;2023-05-10T00:11:28;5.13;;;3.77;;
44696;SDS011;57264;47.480;19.354;2023-05-10T00:13:54;5.20;;;3.23;;
44696;SDS011;57264;47.480;19.354;2023-05-10T00:16:20;5.40;;;3.20;;
44696;SDS011;57264;47.480;19.354;2023-05-10T00:18:45;5.53;;;3.47;;
44696;SDS011;57264;47.480;19.354;2023-05-10T00:21:11;3.67;;;3.17;;
44696;SDS011;57264;47.480;19.354;2023-05-10T00:23:36;5.50;;;3.27;;
44696;SDS011;57264;47.480;19.354;2023-05-10T00:26:02;6.70;;;3.70;;
44696;SDS011;57264;47.480;19.354;2023-05-10T00:28:28;4.23;;;3.60;;
44696;SDS011;57264;47.480;19.354;2023-05-10T00:30:54;4.95;;;3.47;;
44696;SDS011;57264;47.480;19.354;2023-05-10T00:33:22;9.48;;;3.72;;
44696;SDS011;57264;47.480;19.354;2023-05-10T00:35:47;3.40;;;2.90;;
44696;SDS011;57264;47.480;19.354;2023-05-10T00:38:13;3.47;;;3.17;;
44696;SDS011;57264;47.480;19.354;2023-05-10T00:40:39;3.43;;;2.93;;
44696;SDS011;57264;47.480;19.354;2023-05-10T00:43:05;4.03;;;3.10;;
44696;SDS011;57264;47.480;19.354;2023-05-10T00:45:33;5.07;;;3.20;;
44696;SDS011;57264;47.480;19.354;2023-05-10T00:48:01;3.58;;;3.25;;
44696;SDS011;57264;47.480;19.354;2023-05-10T00:50:29;5.80;;;3.20;;
44696;SDS011;57264;47.480;19.354;2023-05-10T00:52:56;4.13;;;2.83;;
44696;SDS011;57264;47.480;19.354;2023-05-10T00:55:23;3.92;;;2.45;;
44696;SDS011;57264;47.480;19.354;2023-05-10T00:57:50;5.45;;;3.17;;
44696;SDS011;57264;47.480;19.354;2023-05-10T01:00:15;3.17;;;2.87;;
44696;SDS011;57264;47.480;19.354;2023-05-10T01:02:44;4.93;;;3.15;;
44696;SDS011;57264;47.480;19.354;2023-05-10T01:05:11;5.03;;;2.72;;
44696;SDS011;57264;47.480;19.354;2023-05-10T01:07:36;5.17;;;3.27;;
44696;SDS011;57264;47.480;19.354;2023-05-10T01:10:02;3.57;;;2.90;;
44696;SDS011;57264;47.480;19.354;2023-05-10T01:12:28;4.47;;;3.30;;
44696;SDS011;57264;47.480;19.354;2023-05-10T01:14:53;4.13;;;3.07;;
44696;SDS011;57264;47.480;19.354;2023-05-10T01:17:20;3.70;;;3.40;;
44696;SDS011;57264;47.480;19.354;2023-05-10T01:19:47;3.47;;;3.17;;
44696;SDS011;57264;47.480;19.354;2023-05-10T01:33:19;8.27;;;3.97;;
44696;SDS011;57264;47.480;19.354;2023-05-10T01:39:01;4.78;;;4.10;;
44696;SDS011;57264;47.480;19.354;2023-05-10T01:41:48;5.93;;;4.20;;
44696;SDS011;57264;47.480;19.354;2023-05-10T01:44:20;4.72;;;4.22;;
44696;SDS011;57264;47.480;19.354;2023-05-10T01:46:57;6.07;;;4.60;;
44696;SDS011;57264;47.480;19.354;2023-05-10T01:49:30;4.43;;;4.00;;
44696;SDS011;57264;47.480;19.354;2023-05-10T01:52:02;5.93;;;4.30;;
44696;SDS011;57264;47.480;19.354;2023-05-10T01:54:44;7.03;;;4.35;;
44696;SDS011;57264;47.480;19.354;2023-05-10T01:57:19;4.90;;;4.40;;
44696;SDS011;57264;47.480;19.354;2023-05-10T01:59:47;5.90;;;4.55;;
44696;SDS011;57264;47.480;19.354;2023-05-10T02:02:15;6.40;;;4.88;;
44696;SDS011;57264;47.480;19.354;2023-05-10T02:04:43;8.45;;;4.82;;
44696;SDS011;57264;47.480;19.354;2023-05-10T02:07:10;6.75;;;4.15;;
44696;SDS011;57264;47.480;19.354;2023-05-10T02:09:36;6.75;;;5.55;;
44696;SDS011;57264;47.480;19.354;2023-05-10T02:12:03;9.40;;;5.25;;
44696;SDS011;57264;47.480;19.354;2023-05-10T02:14:32;7.20;;;4.97;;
44696;SDS011;57264;47.480;19.354;2023-05-10T02:17:02;9.00;;;5.18;;
44696;SDS011;57264;47.480;19.354;2023-05-10T02:19:30;6.05;;;4.43;;
44696;SDS011;57264;47.480;19.354;2023-05-10T02:21:59;5.00;;;4.43;;
44696;SDS011;57264;47.480;19.354;2023-05-10T02:24:25;5.65;;;4.57;;
44696;SDS011;57264;47.480;19.354;2023-05-10T02:26:53;4.60;;;4.20;;
44696;SDS011;57264;47.480;19.354;2023-05-10T02:29:25;6.57;;;5.07;;
44696;SDS011;57264;47.480;19.354;2023-05-10T02:31:54;5.40;;;4.75;;
44696;SDS011;57264;47.480;19.354;2023-05-10T02:34:24;5.22;;;4.72;;
44696;SDS011;57264;47.480;19.354;2023-05-10T02:36:51;5.55;;;4.80;;
44696;SDS011;57264;47.480;19.354;2023-05-10T02:39:21;6.25;;;5.35;;
44696;SDS011;57264;47.480;19.354;2023-05-10T02:41:48;5.35;;;4.85;;
44696;SDS011;57264;47.480;19.354;2023-05-10T02:44:17;8.02;;;4.57;;
44696;SDS011;57264;47.480;19.354;2023-05-10T02:46:45;5.35;;;4.85;;
44696;SDS011;57264;47.480;19.354;2023-05-10T02:49:11;7.45;;;4.88;;
44696;SDS011;57264;47.480;19.354;2023-05-10T02:51:40;6.77;;;4.80;;
44696;SDS011;57264;47.480;19.354;2023-05-10T02:54:15;6.40;;;5.53;;
44696;SDS011;57264;47.480;19.354;2023-05-10T02:56:53;6.22;;;5.10;;
44696;SDS011;57264;47.480;19.354;2023-05-10T02:59:27;6.93;;;5.97;;
44696;SDS011;57264;47.480;19.354;2023-05-10T03:01:53;8.20;;;5.10;;
44696;SDS011;57264;47.480;19.354;2023-05-10T03:04:19;5.53;;;5.03;;
44696;SDS011;57264;47.480;19.354;2023-05-10T03:06:44;6.40;;;5.33;;
44696;SDS011;57264;47.480;19.354;2023-05-10T03:09:10;6.83;;;5.70;;
44696;SDS011;57264;47.480;19.354;2023-05-10T03:14:21;7.28;;;5.65;;
44696;SDS011;57264;47.480;19.354;2023-05-10T03:22:26;7.00;;;5.50;;
44696;SDS011;57264;47.480;19.354;2023-05-10T03:25:11;6.93;;;6.15;;
44696;SDS011;57264;47.480;19.354;2023-05-10T03:27:41;10.95;;;5.70;;
44696;SDS011;57264;47.480;19.354;2023-05-10T03:30:10;7.97;;;5.85;;
44696;SDS011;57264;47.480;19.354;2023-05-10T03:32:37;6.80;;;5.53;;
44696;SDS011;57264;47.480;19.354;2023-05-10T03:35:06;7.65;;;6.00;;
44696;SDS011;57264;47.480;19.354;2023-05-10T03:37:35;6.90;;;6.20;;
44696;SDS011;57264;47.480;19.354;2023-05-10T03:40:01;7.53;;;5.90;;
44696;SDS011;57264;47.480;19.354;2023-05-10T03:42:27;6.32;;;5.18;;
44696;SDS011;57264;47.480;19.354;2023-05-10T03:44:53;8.97;;;5.30;;
44696;SDS011;57264;47.480;19.354;2023-05-10T03:47:19;6.50;;;5.73;;
44696;SDS011;57264;47.480;19.354;2023-05-10T03:49:44;7.50;;;5.30;;
44696;SDS011;57264;47.480;19.354;2023-05-10T03:52:10;6.57;;;5.27;;
44696;SDS011;57264;47.480;19.354;2023-05-10T03:54:36;6.00;;;5.10;;
44696;SDS011;57264;47.480;19.354;2023-05-10T03:57:01;6.87;;;5.87;;
44696;SDS011;57264;47.480;19.354;2023-05-10T03:59:28;6.00;;;5.40;;
44696;SDS011;57264;47.480;19.354;2023-05-10T04:01:53;8.23;;;5.60;;
44696;SDS011;57264;47.480;19.354;2023-05-10T04:04:19;9.33;;;6.17;;
44696;SDS011;57264;47.480;19.354;2023-05-10T04:06:46;7.82;;;5.55;;
44696;SDS011;57264;47.480;19.354;2023-05-10T04:09:12;6.63;;;5.72;;
44696;SDS011;57264;47.480;19.354;2023-05-10T04:11:38;6.70;;;5.32;;
44696;SDS011;57264;47.480;19.354;2023-05-10T04:14:04;6.93;;;5.47;;
44696;SDS011;57264;47.480;19.354;2023-05-10T04:16:29;6.33;;;5.67;;
44696;SDS011;57264;47.480;19.354;2023-05-10T04:18:55;5.73;;;5.03;;
44696;SDS011;57264;47.480;19.354;2023-05-10T04:21:20;5.97;;;4.97;;
44696;SDS011;57264;47.480;19.354;2023-05-10T04:23:46;6.73;;;4.93;;
44696;SDS011;57264;47.480;19.354;2023-05-10T04:26:12;6.10;;;5.50;;
44696;SDS011;57264;47.480;19.354;2023-05-10T04:28:38;8.27;;;5.72;;
44696;SDS011;57264;47.480;19.354;2023-05-10T04:31:04;7.57;;;4.50;;
44696;SDS011;57264;47.480;19.354;2023-05-10T04:33:31;5.93;;;5.30;;
44696;SDS011;57264;47.480;19.354;2023-05-10T04:35:57;7.13;;;5.27;;
44696;SDS011;57264;47.480;19.354;2023-05-10T04:38:22;5.93;;;5.07;;
44696;SDS011;57264;47.480;19.354;2023-05-10T04:40:48;7.27;;;5.07;;
44696;SDS011;57264;47.480;19.354;2023-05-10T04:43:14;5.87;;;5.30;;
44696;SDS011;57264;47.480;19.354;2023-05-10T04:45:40;7.00;;;5.07;;
44696;SDS011;57264;47.480;19.354;2023-05-10T04:48:05;6.37;;;4.70;;
44696;SDS011;57264;47.480;19.354;2023-05-10T04:50:31;6.53;;;5.17;;
44696;SDS011;57264;47.480;19.354;2023-05-10T04:52:57;6.00;;;5.33;;
44696;SDS011;57264;47.480;19.354;2023-05-10T04:55:23;5.60;;;5.00;;
44696;SDS011;57264;47.480;19.354;2023-05-10T04:57:48;5.23;;;4.67;;
44696;SDS011;57264;47.480;19.354;2023-05-10T05:00:14;5.23;;;4.73;;
44696;SDS011;57264;47.480;19.354;2023-05-10T05:02:43;8.57;;;4.88;;
44696;SDS011;57264;47.480;19.354;2023-05-10T05:05:11;7.38;;;5.30;;
44696;SDS011;57264;47.480;19.354;2023-05-10T05:07:37;8.60;;;5.57;;
44696;SDS011;57264;47.480;19.354;2023-05-10T05:10:04;6.70;;;4.80;;
44696;SDS011;57264;47.480;19.354;2023-05-10T05:12:33;7.53;;;4.80;;
44696;SDS011;57264;47.480;19.354;2023-05-10T05:14:59;7.70;;;4.53;;
44696;SDS011;57264;47.480;19.354;2023-05-10T05:17:25;5.67;;;4.00;;
44696;SDS011;57264;47.480;19.354;2023-05-10T05:19:50;5.43;;;4.80;;
44696;SDS011;57264;47.480;19.354;2023-05-10T05:22:16;6.53;;;4.07;;
44696;SDS011;57264;47.480;19.354;2023-05-10T05:24:42;6.17;;;3.97;;
44696;SDS011;57264;47.480;19.354;2023-05-10T05:27:07;5.30;;;4.40;;
44696;SDS011;57264;47.480;19.354;2023-05-10T05:29:33;4.97;;;4.00;;
44696;SDS011;57264;47.480;19.354;2023-05-10T05:31:59;11.47;;;4.57;;
44696;SDS011;57264;47.480;19.354;2023-05-10T05:34:24;4.73;;;4.00;;
44696;SDS011;57264;47.480;19.354;2023-05-10T05:36:51;4.27;;;3.87;;
44696;SDS011;57264;47.480;19.354;2023-05-10T05:39:16;4.33;;;3.53;;
44696;SDS011;57264;47.480;19.354;2023-05-10T05:41:42;6.43;;;3.30;;
44696;SDS011;57264;47.480;19.354;2023-05-10T05:44:08;4.20;;;3.53;;
44696;SDS011;57264;47.480;19.354;2023-05-10T05:46:34;5.00;;;3.20;;
44696;SDS011;57264;47.480;19.354;2023-05-10T05:48:59;5.03;;;4.27;;
44696;SDS011;57264;47.480;19.354;2023-05-10T05:51:25;4.43;;;3.63;;
44696;SDS011;57264;47.480;19.354;2023-05-10T05:53:51;6.50;;;4.37;;
44696;SDS011;57264;47.480;19.354;2023-05-10T05:56:16;7.47;;;3.40;;
44696;SDS011;57264;47.480;19.354;2023-05-10T05:58:49;5.27;;;3.77;;
44696;SDS011;57264;47.480;19.354;2023-05-10T06:01:16;5.07;;;4.43;;
44696;SDS011;57264;47.480;19.354;2023-05-10T06:03:41;4.40;;;3.97;;
44696;SDS011;57264;47.480;19.354;2023-05-10T06:06:07;5.57;;;4.17;;
44696;SDS011;57264;47.480;19.354;2023-05-10T06:08:33;4.90;;;3.73;;
44696;SDS011;57264;47.480;19.354;2023-05-10T06:10:59;4.30;;;3.53;;
44696;SDS011;57264;47.480;19.354;2023-05-10T06:13:29;5.83;;;3.90;;
44696;SDS011;57264;47.480;19.354;2023-05-10T06:15:57;7.83;;;3.67;;
44696;SDS011;57264;47.480;19.354;2023-05-10T06:18:23;4.03;;;3.57;;
44696;SDS011;57264;47.480;19.354;2023-05-10T06:20:49;4.33;;;3.77;;
